ATL weather

Hartsfield Jackson Atlanta International Airport
Atlanta, Georgia, United States

Public forecast

Using degrees Fahrenheit for public forecast. Weather courtesy of forecast.io.

METAR (pilot weather report)

Retrieved 2018/07/17 00:32 UTC (14 minutes ago):

KATL 170032Z 11006KT 10SM VCTS FEW020CB SCT050 BKN150 BKN250 28/23 A3001 RMK AO2 TSB32 OCNL LTGICCG S-W-NW TS VC S-W-NW MOV NE T02830233

TAF (pilot weather forecast)

Forecast is more than 12 hours old.

Retrieved 2018/07/16 00:30 UTC (1 day ago):

TAF KATL 162329Z 1700/1806 23005KT P6SM SCT035 BKN150 TEMPO 1700/1702 VRB15G25KT 3SM TSRA BKN025CB FM170900 25004KT P6SM BKN008 BKN015 FM171400 25007KT P6SM SCT008 BKN015 OVC030 FM171600 28008KT P6SM VCSH BKN035 PROB30 1718/1724 3SM TSRA BR BKN025CB FM180200 29006KT P6SM SCT040 BKN120